19  °C
Temperature
66  °F
Temperature
34  °F
 Dewpoint
1  °C
  Dewpoint
 %
 Humidity
  Temperature
8  km/h
Wind Speed
4  kts
Wind Speed
5  mph
Wind Speed
0  m/s
Wind Speed
340°
North North
West

Wind Speed
Clear
Conditions
Pressure 1020.92 (hPa) - 30.15 (inHG)
Visibility 10.0 (km) - 6.2 (mi)

Sky Conditions
EPWR
Location 15 km (9.32 mi)
Metar :EPWR 211430Z 34004KT 280V010 CAVOK 19/01 Q1021
Sun 21st April 15:30 pm

Nearest Airport
https://www.checkwx.com/weather/EPWR
  Metar Aviation API Data Provided by https://www.checkwx.com/ Original CSS/SVG/PHP scripts by weather34.com © 2015-2019